Time;durP1;ratioP1;P1;durP2;ratioP2;P2;SDS_P1;SDS_P2;PMS_P1;PMS_P2;Temp;Humidity;BMP_temperature;BMP_pressure;BME280_temperature;BME280_humidity;BME280_pressure;Samples;Min_cycle;Max_cycle;Signal;HPM_P1;HPM_P2
2022/02/07 00:01:59;;;;;;;2.90;1.30;;;3.20;99.90;;;;;;459884;258;27543;-69
2022/02/07 00:03:58;;;;;;;1.12;1.12;;;3.20;99.90;;;;;;459893;258;27545;-69
2022/02/07 00:05:56;;;;;;;1.80;1.20;;;3.20;99.90;;;;;;459864;258;27581;-69
2022/02/07 00:07:58;;;;;;;1.10;1.10;;;3.20;99.90;;;;;;459862;258;27502;-69
2022/02/07 00:09:58;;;;;;;1.00;1.00;;;3.30;99.90;;;;;;459864;258;27557;-69
2022/02/07 00:12:00;;;;;;;1.77;1.20;;;3.20;99.90;;;;;;459888;258;27923;-69
2022/02/07 00:14:01;;;;;;;1.30;1.10;;;3.20;99.90;;;;;;459859;258;28014;-69
2022/02/07 00:16:02;;;;;;;2.55;1.30;;;3.20;99.90;;;;;;459875;258;29218;-69
2022/02/07 00:18:03;;;;;;;1.37;1.30;;;3.20;99.90;;;;;;459841;258;28080;-69
2022/02/07 00:20:15;;;;;;;1.40;1.40;;;3.20;99.90;;;;;;459884;258;27519;-69
2022/02/07 00:22:12;;;;;;;1.20;1.10;;;3.20;99.90;;;;;;459886;258;27515;-69
2022/02/07 00:24:13;;;;;;;2.75;1.40;;;3.20;99.90;;;;;;459893;258;28001;-69
2022/02/07 00:26:14;;;;;;;2.05;1.33;;;3.20;99.90;;;;;;459889;258;27921;-69
2022/02/07 00:28:15;;;;;;;1.27;1.20;;;3.20;99.90;;;;;;459890;258;28077;-69
2022/02/07 00:30:17;;;;;;;1.37;1.37;;;3.20;99.90;;;;;;459854;258;28697;-69
2022/02/07 00:32:18;;;;;;;1.15;1.15;;;3.20;99.90;;;;;;459902;258;27575;-69
2022/02/07 00:34:19;;;;;;;1.35;1.33;;;3.20;99.90;;;;;;459898;258;27503;-69
2022/02/07 00:36:20;;;;;;;1.33;1.23;;;3.20;99.90;;;;;;459892;258;27563;-69
2022/02/07 00:38:23;;;;;;;1.83;1.33;;;3.10;99.90;;;;;;459894;258;27495;-70
2022/02/07 00:42:30;;;;;;;1.80;1.35;;;3.10;99.90;;;;;;459887;258;27478;-69
2022/02/07 00:44:25;;;;;;;3.62;1.60;;;3.10;99.90;;;;;;459911;258;27505;-69
2022/02/07 00:46:36;;;;;;;1.30;1.30;;;3.20;99.90;;;;;;459872;258;27560;-69
2022/02/07 00:48:34;;;;;;;1.45;1.35;;;3.20;99.90;;;;;;459833;258;27490;-69
2022/02/07 00:50:35;;;;;;;2.78;1.40;;;3.20;99.90;;;;;;459858;258;27575;-69
2022/02/07 00:52:36;;;;;;;1.48;1.37;;;3.20;99.90;;;;;;459861;258;27549;-69
2022/02/07 00:54:38;;;;;;;2.25;1.50;;;3.30;99.90;;;;;;459874;258;27510;-69
2022/02/07 00:56:39;;;;;;;1.50;1.40;;;3.20;99.90;;;;;;459863;258;27554;-69
2022/02/07 00:58:40;;;;;;;1.70;1.60;;;3.20;99.90;;;;;;459841;258;27503;-69
2022/02/07 01:00:41;;;;;;;2.05;1.85;;;3.20;99.90;;;;;;459897;258;27505;-69
2022/02/07 01:02:46;;;;;;;5.80;1.65;;;3.20;99.90;;;;;;459870;258;27470;-69
2022/02/07 01:04:44;;;;;;;2.95;1.65;;;3.30;99.90;;;;;;459649;258;27495;-69
2022/02/07 01:06:45;;;;;;;4.25;2.03;;;3.20;99.90;;;;;;459881;258;28011;-69
2022/02/07 01:08:51;;;;;;;3.08;2.15;;;3.20;99.90;;;;;;459851;258;28111;-69
2022/02/07 01:10:59;;;;;;;8.60;1.70;;;3.00;99.90;;;;;;459894;258;28055;-69
2022/02/07 01:13:21;;;;;;;2.92;1.50;;;3.00;99.90;;;;;;459869;258;27503;-69
2022/02/07 01:21:55;;;;;;;2.10;1.90;;;3.10;99.90;;;;;;459905;258;28118;-69
2022/02/07 01:46:53;;;;;;;3.47;1.73;;;3.30;99.90;;;;;;460342;257;27486;-70
2022/02/07 01:55:09;;;;;;;2.05;1.77;;;3.20;99.90;;;;;;459856;258;27475;-70
2022/02/07 01:56:53;;;;;;;4.72;1.48;;;3.20;99.90;;;;;;459305;258;27958;-69
2022/02/07 01:58:55;;;;;;;2.20;1.90;;;3.30;99.90;;;;;;459885;258;28069;-69
2022/02/07 02:00:56;;;;;;;3.97;1.60;;;3.30;99.90;;;;;;459878;258;27978;-70
2022/02/07 02:02:57;;;;;;;3.83;2.10;;;3.30;99.90;;;;;;459853;258;29078;-70
2022/02/07 02:04:58;;;;;;;3.58;1.60;;;3.40;99.90;;;;;;459865;258;27519;-70
2022/02/07 02:07:00;;;;;;;5.87;2.10;;;3.30;99.90;;;;;;459871;258;27528;-70
2022/02/07 02:09:01;;;;;;;3.53;1.95;;;3.40;99.90;;;;;;459868;258;27506;-70
2022/02/07 02:11:02;;;;;;;9.00;2.53;;;3.40;99.90;;;;;;459858;258;27463;-70
2022/02/07 02:13:09;;;;;;;3.70;1.90;;;3.40;99.90;;;;;;459857;258;27531;-69
2022/02/07 02:15:23;;;;;;;4.50;1.70;;;3.40;99.90;;;;;;459890;258;27530;-70
2022/02/07 02:19:46;;;;;;;3.05;1.70;;;3.50;99.90;;;;;;459887;258;27977;-70
2022/02/07 02:22:18;;;;;;;4.78;1.95;;;3.50;99.90;;;;;;459945;258;27926;-70
2022/02/07 02:33:21;;;;;;;4.85;1.70;;;3.40;99.90;;;;;;459871;258;27547;-69
2022/02/07 02:35:36;;;;;;;7.43;2.22;;;3.30;99.90;;;;;;460334;254;28011;-70
2022/02/07 02:37:47;;;;;;;2.65;1.50;;;3.40;99.90;;;;;;459960;258;27519;-70
2022/02/07 02:45:58;;;;;;;2.17;1.80;;;3.30;99.90;;;;;;460340;257;28604;-70
2022/02/07 02:48:01;;;;;;;1.90;1.70;;;3.30;99.90;;;;;;459897;258;27919;-70
2022/02/07 02:50:04;;;;;;;15.25;2.00;;;3.30;99.90;;;;;;459869;258;28077;-70
2022/02/07 02:52:01;;;;;;;4.37;2.22;;;3.30;99.90;;;;;;459866;258;27982;-70
2022/02/07 02:54:02;;;;;;;3.45;1.60;;;3.30;99.90;;;;;;459855;258;27570;-70
2022/02/07 02:56:03;;;;;;;5.45;2.00;;;3.20;99.90;;;;;;459839;258;27514;-70
2022/02/07 02:58:04;;;;;;;5.03;1.90;;;3.20;99.90;;;;;;459867;258;27467;-70
2022/02/07 03:00:06;;;;;;;4.37;2.12;;;3.10;99.90;;;;;;459860;258;27495;-70
2022/02/07 03:02:07;;;;;;;4.62;1.77;;;2.70;99.90;;;;;;459851;258;27475;-69
2022/02/07 03:04:08;;;;;;;1.85;1.40;;;2.20;99.90;;;;;;459855;258;27589;-69
2022/02/07 03:06:09;;;;;;;2.25;1.42;;;2.00;99.90;;;;;;459891;258;27499;-69
2022/02/07 03:08:11;;;;;;;2.17;1.52;;;1.90;99.90;;;;;;459903;258;27574;-69
2022/02/07 03:10:22;;;;;;;1.80;1.70;;;1.80;99.90;;;;;;459888;258;27506;-69
2022/02/07 03:12:13;;;;;;;2.90;1.90;;;1.60;99.90;;;;;;459895;258;27962;-69
2022/02/07 03:14:21;;;;;;;1.62;1.52;;;1.60;99.90;;;;;;459873;258;27955;-69
2022/02/07 03:18:35;;;;;;;1.80;1.67;;;1.50;99.90;;;;;;459892;258;27527;-69
2022/02/07 03:20:37;;;;;;;1.85;1.30;;;1.50;99.90;;;;;;460341;258;27608;-69
2022/02/07 03:22:38;;;;;;;3.55;1.65;;;1.40;99.90;;;;;;459896;258;27490;-69
2022/02/07 03:24:39;;;;;;;1.58;1.48;;;1.40;99.90;;;;;;459884;258;27471;-69
2022/02/07 03:26:42;;;;;;;2.05;1.60;;;1.40;99.90;;;;;;459867;258;27595;-69
2022/02/07 03:28:42;;;;;;;1.33;1.33;;;1.30;99.90;;;;;;459876;258;28014;-69
2022/02/07 03:30:43;;;;;;;3.25;1.60;;;1.30;99.90;;;;;;459886;258;27932;-69
2022/02/07 03:32:44;;;;;;;1.77;1.67;;;1.30;99.90;;;;;;459896;258;28089;-69
2022/02/07 03:34:45;;;;;;;1.58;1.48;;;1.30;99.90;;;;;;459873;258;27953;-69
2022/02/07 03:36:47;;;;;;;1.75;1.65;;;1.40;99.90;;;;;;459885;258;27498;-69
2022/02/07 03:38:48;;;;;;;1.80;1.70;;;1.40;99.90;;;;;;459859;258;27527;-69
2022/02/07 03:40:49;;;;;;;2.28;2.10;;;1.40;99.90;;;;;;459881;258;27456;-69
2022/02/07 03:42:50;;;;;;;2.30;1.80;;;1.40;99.90;;;;;;459886;258;27502;-69
2022/02/07 03:44:52;;;;;;;2.12;2.03;;;1.40;99.90;;;;;;459859;258;27482;-69
2022/02/07 03:46:53;;;;;;;2.00;1.80;;;1.50;99.90;;;;;;459833;258;27587;-69
2022/02/07 03:48:54;;;;;;;2.95;1.80;;;1.50;99.90;;;;;;459844;258;27575;-69
2022/02/07 03:50:55;;;;;;;1.50;1.50;;;1.40;99.90;;;;;;459860;258;27474;-69
2022/02/07 03:52:57;;;;;;;3.75;1.85;;;1.40;99.90;;;;;;459839;258;27514;-70
2022/02/07 03:54:58;;;;;;;2.55;1.80;;;1.50;99.90;;;;;;459834;258;28057;-69
2022/02/07 03:56:59;;;;;;;1.70;1.60;;;1.60;99.90;;;;;;459850;258;28087;-69
2022/02/07 03:59:00;;;;;;;2.08;1.87;;;1.60;99.90;;;;;;459885;258;28159;-69
2022/02/07 04:01:02;;;;;;;1.95;1.70;;;1.60;99.90;;;;;;459885;258;28022;-69
2022/02/07 04:03:07;;;;;;;1.90;1.80;;;1.60;99.90;;;;;;459858;258;27503;-69
2022/02/07 04:05:54;;;;;;;1.95;1.73;;;1.50;99.90;;;;;;459868;258;27514;-69
2022/02/07 04:07:07;;;;;;;1.83;1.58;;;1.50;99.90;;;;;;456668;258;27510;-69
2022/02/07 04:09:08;;;;;;;2.65;1.70;;;1.60;99.90;;;;;;459852;258;27559;-69
2022/02/07 04:11:24;;;;;;;1.90;1.77;;;1.60;99.90;;;;;;459873;258;27466;-70
2022/02/07 04:13:25;;;;;;;2.75;2.03;;;1.70;99.90;;;;;;459706;258;27476;-70
2022/02/07 04:15:20;;;;;;;2.15;2.05;;;1.70;99.90;;;;;;459890;258;27614;-70
2022/02/07 04:17:25;;;;;;;2.33;1.62;;;1.80;99.90;;;;;;459864;258;27534;-69
2022/02/07 04:19:29;;;;;;;1.77;1.67;;;1.80;99.90;;;;;;459889;258;27487;-69
2022/02/07 04:21:23;;;;;;;3.53;1.50;;;1.70;99.90;;;;;;459910;258;27622;-69
2022/02/07 04:23:24;;;;;;;2.75;1.90;;;1.70;99.90;;;;;;459854;258;27583;-69
2022/02/07 04:25:26;;;;;;;1.62;1.52;;;1.60;99.90;;;;;;459872;258;27502;-69
2022/02/07 04:27:27;;;;;;;1.65;1.30;;;1.60;99.90;;;;;;459872;258;27476;-70
2022/02/07 04:29:28;;;;;;;5.72;1.90;;;1.60;99.90;;;;;;459876;258;28002;-69
2022/02/07 04:31:29;;;;;;;2.35;1.95;;;1.70;99.90;;;;;;459876;258;28024;-70
2022/02/07 04:33:31;;;;;;;4.95;2.10;;;1.70;99.90;;;;;;459885;258;27925;-70
2022/02/07 04:35:32;;;;;;;2.33;1.80;;;1.80;99.90;;;;;;459862;258;28001;-69
2022/02/07 04:37:33;;;;;;;3.28;1.70;;;1.80;99.90;;;;;;459877;258;27486;-70
2022/02/07 04:39:34;;;;;;;4.60;1.90;;;1.90;99.90;;;;;;459867;258;27510;-70
2022/02/07 04:41:40;;;;;;;5.47;1.70;;;1.90;99.90;;;;;;459876;258;27500;-70
2022/02/07 04:43:44;;;;;;;4.50;1.80;;;1.90;99.90;;;;;;459839;258;27462;-70
2022/02/07 04:46:04;;;;;;;2.22;1.60;;;1.90;99.90;;;;;;459863;258;27494;-70
2022/02/07 04:48:21;;;;;;;7.60;2.15;;;1.80;99.90;;;;;;459907;258;27522;-69
2022/02/07 04:52:09;;;;;;;6.75;2.75;;;1.80;99.90;;;;;;459886;258;28005;-69
2022/02/07 04:54:19;;;;;;;4.78;2.60;;;1.70;99.90;;;;;;459623;258;27456;-70
2022/02/07 05:00:39;;;;;;;2.37;2.10;;;1.80;99.90;;;;;;459858;258;27492;-69
2022/02/07 05:05:01;;;;;;;3.17;2.45;;;1.90;99.90;;;;;;451524;263;27608;-70
2022/02/07 05:13:52;;;;;;;3.35;1.95;;;1.70;99.90;;;;;;451572;263;28067;-70
2022/02/07 05:15:51;;;;;;;4.00;2.25;;;1.70;99.90;;;;;;451600;261;27950;-70
2022/02/07 05:17:52;;;;;;;10.45;2.10;;;1.70;99.90;;;;;;451578;263;27625;-70
2022/02/07 05:19:53;;;;;;;5.03;2.37;;;1.70;99.90;;;;;;451562;263;27568;-70
2022/02/07 05:21:55;;;;;;;5.55;2.05;;;1.80;99.90;;;;;;451555;263;27606;-70
2022/02/07 05:23:56;;;;;;;5.03;2.08;;;1.80;99.90;;;;;;451577;263;27613;-70
2022/02/07 05:25:58;;;;;;;2.85;2.17;;;1.70;99.90;;;;;;451581;263;27657;-70
2022/02/07 05:27:59;;;;;;;6.25;2.10;;;1.80;99.90;;;;;;451573;263;28066;-70
2022/02/07 05:30:01;;;;;;;4.15;1.90;;;1.70;99.90;;;;;;451592;263;27597;-69
2022/02/07 05:32:02;;;;;;;8.18;2.25;;;1.70;99.90;;;;;;451581;261;28013;-70
2022/02/07 05:34:03;;;;;;;4.87;2.20;;;1.70;99.90;;;;;;451564;263;28145;-69
2022/02/07 05:36:04;;;;;;;5.32;2.05;;;1.70;99.90;;;;;;453245;258;28913;-70
2022/02/07 05:38:08;;;;;;;4.60;1.90;;;1.70;99.90;;;;;;459885;258;28021;-69
2022/02/07 05:40:12;;;;;;;2.55;1.92;;;1.70;99.90;;;;;;459866;258;27507;-70
2022/02/07 05:42:08;;;;;;;5.85;2.10;;;1.70;99.90;;;;;;459873;258;27458;-70
2022/02/07 05:44:09;;;;;;;4.07;2.10;;;1.70;99.90;;;;;;459859;258;27566;-70
2022/02/07 05:46:10;;;;;;;3.17;2.00;;;1.70;99.90;;;;;;459849;258;27475;-69
2022/02/07 05:48:11;;;;;;;5.97;2.70;;;1.80;99.90;;;;;;459879;258;27622;-70
2022/02/07 05:50:13;;;;;;;6.12;2.10;;;1.80;99.90;;;;;;459874;258;27629;-70
2022/02/07 05:52:14;;;;;;;2.03;1.80;;;1.70;99.90;;;;;;459847;258;27954;-70
2022/02/07 05:54:15;;;;;;;6.10;2.15;;;1.70;99.90;;;;;;459831;258;27601;-69
2022/02/07 05:56:16;;;;;;;5.43;2.00;;;1.70;99.90;;;;;;459868;258;27837;-70
2022/02/07 05:58:18;;;;;;;6.43;2.28;;;1.60;99.90;;;;;;459891;258;27484;-70
2022/02/07 06:00:19;;;;;;;8.93;2.30;;;1.60;99.90;;;;;;459872;258;28070;-69
2022/02/07 06:02:20;;;;;;;2.10;1.83;;;1.60;99.90;;;;;;459851;258;27985;-69
2022/02/07 06:04:21;;;;;;;5.90;2.35;;;1.60;99.90;;;;;;459881;258;27981;-70
2022/02/07 06:06:23;;;;;;;3.50;2.00;;;1.60;99.90;;;;;;459871;258;28065;-70
2022/02/07 06:08:24;;;;;;;2.80;1.92;;;1.60;99.90;;;;;;459875;258;27828;-70
2022/02/07 06:10:25;;;;;;;2.80;1.77;;;1.60;99.90;;;;;;459798;258;27514;-70
2022/02/07 06:12:26;;;;;;;2.53;2.10;;;1.70;99.90;;;;;;459670;258;27460;-70
2022/02/07 06:14:28;;;;;;;2.53;1.80;;;1.70;99.90;;;;;;459693;258;27555;-70
2022/02/07 06:16:32;;;;;;;4.60;1.90;;;1.70;99.90;;;;;;459680;258;27578;-70
2022/02/07 06:18:31;;;;;;;6.75;2.10;;;1.70;99.90;;;;;;459636;258;27479;-70
2022/02/07 06:20:31;;;;;;;2.42;2.20;;;1.70;99.90;;;;;;459668;258;27607;-70
2022/02/07 06:22:33;;;;;;;3.95;1.95;;;1.70;99.90;;;;;;459822;258;27480;-70
2022/02/07 06:24:34;;;;;;;2.85;2.10;;;1.70;99.90;;;;;;459888;258;27874;-70
2022/02/07 06:26:35;;;;;;;3.65;2.30;;;1.70;99.90;;;;;;459865;258;27962;-69
2022/02/07 06:28:36;;;;;;;7.35;2.20;;;1.70;99.90;;;;;;459871;258;27918;-70
2022/02/07 06:30:38;;;;;;;6.12;2.60;;;1.70;99.90;;;;;;459858;258;27977;-70
2022/02/07 06:32:39;;;;;;;5.53;2.47;;;1.60;99.90;;;;;;459869;258;28040;-70
2022/02/07 06:34:40;;;;;;;6.85;2.30;;;1.60;99.90;;;;;;459873;258;27456;-70
2022/02/07 06:36:41;;;;;;;5.47;2.50;;;1.50;99.90;;;;;;459839;258;27583;-69
2022/02/07 06:38:43;;;;;;;4.57;2.40;;;1.50;99.90;;;;;;459868;258;27466;-70
2022/02/07 06:40:44;;;;;;;4.80;3.00;;;1.40;99.90;;;;;;459862;258;27510;-70
2022/02/07 06:42:45;;;;;;;5.37;2.80;;;1.40;99.90;;;;;;459860;258;27566;-70
2022/02/07 06:44:46;;;;;;;5.40;2.00;;;1.40;99.90;;;;;;459879;255;27528;-69
2022/02/07 06:46:48;;;;;;;4.30;2.53;;;1.40;99.90;;;;;;459875;258;27506;-69
2022/02/07 06:48:49;;;;;;;3.72;2.50;;;1.40;99.90;;;;;;459871;258;27552;-69
2022/02/07 06:50:50;;;;;;;5.18;2.60;;;1.40;99.90;;;;;;459863;258;27507;-70
2022/02/07 06:52:51;;;;;;;5.45;2.03;;;1.40;99.90;;;;;;459897;258;27563;-70
2022/02/07 06:54:53;;;;;;;3.72;2.83;;;1.40;99.90;;;;;;459893;258;27938;-69
2022/02/07 06:56:54;;;;;;;2.75;2.00;;;1.30;99.90;;;;;;459888;258;28003;-69
2022/02/07 06:58:55;;;;;;;4.57;2.45;;;1.30;99.90;;;;;;459864;258;27943;-69
2022/02/07 07:00:59;;;;;;;4.55;2.17;;;1.20;99.90;;;;;;460336;258;27914;-70
2022/02/07 07:02:58;;;;;;;3.58;2.47;;;1.20;99.90;;;;;;459877;258;27522;-69
2022/02/07 07:05:06;;;;;;;5.53;2.30;;;1.20;99.90;;;;;;459876;258;27456;-69
2022/02/07 07:07:00;;;;;;;2.87;2.33;;;1.30;99.90;;;;;;459883;258;27526;-70
2022/02/07 07:09:01;;;;;;;4.25;2.30;;;1.40;99.90;;;;;;459866;258;27467;-70
2022/02/07 07:11:03;;;;;;;6.57;3.08;;;1.40;99.90;;;;;;459890;258;27567;-70
2022/02/07 07:13:10;;;;;;;7.32;2.20;;;1.50;99.90;;;;;;459895;258;27530;-69
2022/02/07 07:17:06;;;;;;;4.12;2.30;;;1.50;99.90;;;;;;459884;258;27543;-69
2022/02/07 07:19:08;;;;;;;5.03;2.42;;;1.50;99.90;;;;;;459885;258;27547;-69
2022/02/07 07:21:09;;;;;;;2.60;2.15;;;1.40;99.90;;;;;;459890;258;28654;-70
2022/02/07 07:23:11;;;;;;;9.23;2.45;;;1.40;99.90;;;;;;459884;258;27971;-69
2022/02/07 07:25:16;;;;;;;2.30;2.10;;;1.50;99.90;;;;;;459861;258;28015;-69
2022/02/07 07:27:14;;;;;;;11.90;2.65;;;1.50;99.90;;;;;;459884;258;27973;-69
2022/02/07 07:29:18;;;;;;;5.47;2.17;;;1.50;99.90;;;;;;459885;258;27757;-70
2022/02/07 07:31:16;;;;;;;5.05;2.42;;;1.40;99.90;;;;;;459920;258;27551;-69
2022/02/07 07:33:20;;;;;;;2.10;1.90;;;1.40;99.90;;;;;;459887;258;27504;-69
2022/02/07 07:35:18;;;;;;;1.92;1.80;;;1.30;99.90;;;;;;459859;258;27467;-69
2022/02/07 07:37:19;;;;;;;2.58;2.35;;;1.30;99.90;;;;;;459875;258;27603;-69
2022/02/07 07:39:20;;;;;;;3.50;2.30;;;1.30;99.90;;;;;;459918;258;27511;-70
2022/02/07 07:41:21;;;;;;;4.12;2.15;;;1.30;99.90;;;;;;459863;258;27466;-69
2022/02/07 07:43:23;;;;;;;2.35;2.17;;;1.30;99.90;;;;;;459883;258;27495;-69
2022/02/07 07:45:27;;;;;;;3.12;2.25;;;1.40;99.90;;;;;;459862;258;27857;-70
2022/02/07 07:47:29;;;;;;;7.15;2.50;;;1.40;99.90;;;;;;459877;258;27597;-69
2022/02/07 07:49:34;;;;;;;6.47;2.25;;;1.50;99.90;;;;;;459892;258;28041;-69
2022/02/07 07:51:46;;;;;;;8.00;2.70;;;1.60;99.90;;;;;;459909;258;27515;-70
2022/02/07 07:53:49;;;;;;;5.30;2.78;;;1.60;99.90;;;;;;459889;258;27498;-70
2022/02/07 08:02:28;;;;;;;7.87;2.85;;;1.60;99.90;;;;;;460361;258;28060;-69
2022/02/07 08:04:32;;;;;;;3.15;2.75;;;1.60;99.90;;;;;;459875;258;28126;-69
2022/02/07 08:06:36;;;;;;;4.28;2.60;;;1.70;99.90;;;;;;459889;258;28003;-71
2022/02/07 08:08:37;;;;;;;13.10;3.20;;;1.70;99.90;;;;;;459882;258;27985;-69
2022/02/07 08:10:48;;;;;;;6.55;2.95;;;1.70;99.90;;;;;;459891;258;27553;-69
2022/02/07 08:12:46;;;;;;;9.65;3.00;;;1.80;99.90;;;;;;459921;258;27523;-70
2022/02/07 08:14:42;;;;;;;9.77;3.47;;;1.80;99.90;;;;;;459872;258;27479;-69
2022/02/07 08:16:45;;;;;;;6.93;3.20;;;1.80;99.90;;;;;;459863;258;28031;-69
2022/02/07 08:18:45;;;;;;;5.80;3.05;;;1.90;99.90;;;;;;459832;258;28669;-69
2022/02/07 08:20:46;;;;;;;7.60;3.35;;;1.90;99.90;;;;;;459889;258;27950;-69
2022/02/07 08:22:48;;;;;;;7.37;3.20;;;2.10;99.90;;;;;;459874;258;27982;-70
2022/02/07 08:24:49;;;;;;;7.18;3.50;;;2.20;99.90;;;;;;459858;258;27471;-69
2022/02/07 08:26:52;;;;;;;5.10;2.78;;;2.30;99.90;;;;;;459871;258;27574;-69
2022/02/07 08:28:51;;;;;;;11.88;2.90;;;2.30;99.90;;;;;;459879;258;27498;-69
2022/02/07 08:30:52;;;;;;;8.27;3.55;;;2.30;99.90;;;;;;459887;258;27532;-69
2022/02/07 08:32:54;;;;;;;6.37;3.00;;;2.30;99.90;;;;;;459872;258;27511;-70
2022/02/07 08:35:00;;;;;;;5.43;3.28;;;2.40;99.90;;;;;;459871;258;27522;-70
2022/02/07 08:37:02;;;;;;;5.60;3.60;;;2.40;99.90;;;;;;459831;258;27595;-70
2022/02/07 08:38:58;;;;;;;8.07;2.95;;;2.40;99.90;;;;;;459896;258;27599;-69
2022/02/07 08:41:00;;;;;;;6.87;3.15;;;2.40;99.90;;;;;;459884;258;27594;-69
2022/02/07 08:43:01;;;;;;;9.70;3.40;;;2.50;99.90;;;;;;459876;258;27475;-70
2022/02/07 08:45:02;;;;;;;4.00;2.70;;;2.60;99.90;;;;;;459870;258;27511;-70
2022/02/07 08:47:03;;;;;;;7.75;2.75;;;2.60;99.90;;;;;;459848;258;28512;-69
2022/02/07 08:49:05;;;;;;;8.25;2.80;;;2.70;99.90;;;;;;459893;258;27943;-69
2022/02/07 08:51:06;;;;;;;7.95;3.05;;;2.70;99.90;;;;;;459883;258;28069;-69
2022/02/07 08:53:08;;;;;;;4.18;2.78;;;2.80;99.90;;;;;;459869;258;28013;-70
2022/02/07 08:55:12;;;;;;;5.32;2.87;;;2.90;99.90;;;;;;459859;258;27535;-69
2022/02/07 08:57:18;;;;;;;9.25;3.12;;;2.90;99.90;;;;;;459882;258;27538;-69
2022/02/07 08:59:14;;;;;;;8.43;2.80;;;2.90;99.90;;;;;;459883;258;27535;-70
2022/02/07 09:01:20;;;;;;;8.02;3.45;;;2.90;99.90;;;;;;459875;258;27459;-70
2022/02/07 09:05:49;;;;;;;5.90;2.90;;;3.00;99.90;;;;;;459915;258;27595;-69
2022/02/07 09:07:50;;;;;;;5.45;2.92;;;3.10;99.90;;;;;;460359;258;27550;-70
2022/02/07 09:09:47;;;;;;;6.57;2.67;;;3.10;99.90;;;;;;459710;258;27470;-70
2022/02/07 09:11:48;;;;;;;4.90;2.53;;;3.20;99.90;;;;;;459879;258;28083;-70
2022/02/07 09:13:50;;;;;;;7.75;2.90;;;3.30;99.90;;;;;;459842;258;27928;-69
2022/02/07 09:16:02;;;;;;;5.40;3.28;;;3.40;99.90;;;;;;459848;258;29099;-70
2022/02/07 09:17:55;;;;;;;2.78;2.20;;;3.50;99.90;;;;;;459891;258;27936;-69
2022/02/07 09:19:56;;;;;;;6.47;2.80;;;3.60;99.90;;;;;;459877;258;28114;-69
2022/02/07 09:21:57;;;;;;;6.00;2.65;;;3.70;99.90;;;;;;459879;258;27931;-69
2022/02/07 09:23:59;;;;;;;6.35;2.75;;;3.70;99.90;;;;;;459876;258;27950;-69
2022/02/07 09:26:00;;;;;;;7.05;3.00;;;3.50;99.90;;;;;;459880;258;27565;-69
2022/02/07 09:28:01;;;;;;;6.32;2.33;;;3.40;99.90;;;;;;459905;258;27460;-69
2022/02/07 09:30:06;;;;;;;14.45;2.85;;;3.50;99.90;;;;;;459890;258;27507;-69
2022/02/07 09:32:04;;;;;;;4.62;2.42;;;3.60;99.90;;;;;;459840;258;27536;-69
2022/02/07 09:34:05;;;;;;;8.32;3.75;;;3.60;99.90;;;;;;459872;258;27544;-69
2022/02/07 09:36:06;;;;;;;5.68;2.55;;;3.60;99.90;;;;;;459866;258;27502;-69
2022/02/07 09:38:07;;;;;;;5.57;2.80;;;3.50;99.90;;;;;;459862;258;27475;-69
2022/02/07 09:40:09;;;;;;;4.97;2.45;;;3.60;99.90;;;;;;459879;258;27511;-69
2022/02/07 09:42:10;;;;;;;4.25;2.10;;;3.50;99.90;;;;;;459867;258;27462;-69
2022/02/07 09:44:11;;;;;;;7.20;3.20;;;3.40;99.90;;;;;;459879;258;27571;-69
2022/02/07 09:46:19;;;;;;;6.80;3.35;;;3.40;99.90;;;;;;459867;258;27989;-69
2022/02/07 09:48:15;;;;;;;5.25;2.80;;;3.40;99.90;;;;;;459870;258;27918;-69
2022/02/07 09:50:15;;;;;;;5.12;2.70;;;3.40;99.90;;;;;;459869;258;27958;-69
2022/02/07 09:52:16;;;;;;;3.87;2.58;;;3.40;99.90;;;;;;459875;258;27582;-69
2022/02/07 09:54:17;;;;;;;5.62;3.20;;;3.50;99.90;;;;;;459850;258;27474;-70
2022/02/07 09:56:19;;;;;;;6.37;3.10;;;3.50;99.90;;;;;;459869;258;27490;-69
2022/02/07 09:58:20;;;;;;;8.75;2.97;;;3.50;99.90;;;;;;459846;258;27539;-69
2022/02/07 10:00:25;;;;;;;8.10;2.78;;;3.50;99.90;;;;;;459865;258;27491;-69
2022/02/07 10:02:40;;;;;;;5.87;2.55;;;3.50;99.90;;;;;;459826;258;27474;-69
2022/02/07 10:04:40;;;;;;;6.93;3.05;;;3.60;99.90;;;;;;459843;258;27926;-70
2022/02/07 10:06:48;;;;;;;11.10;3.28;;;3.70;99.90;;;;;;459868;258;27549;-69
2022/02/07 10:08:51;;;;;;;22.70;3.30;;;3.80;99.90;;;;;;459903;258;27543;-69
2022/02/07 10:10:52;;;;;;;6.45;2.60;;;3.80;99.90;;;;;;459894;258;27459;-69
2022/02/07 10:13:03;;;;;;;5.30;2.10;;;3.80;99.90;;;;;;459762;258;27506;-69
2022/02/07 10:14:53;;;;;;;6.03;2.40;;;3.90;99.90;;;;;;459748;258;27472;-69
2022/02/07 10:19:04;;;;;;;6.25;2.85;;;4.20;99.90;;;;;;459867;258;27482;-70
2022/02/07 10:34:43;;;;;;;5.18;2.75;;;4.20;99.90;;;;;;459836;258;27502;-69
2022/02/07 10:39:12;;;;;;;4.85;2.50;;;4.20;99.90;;;;;;459845;258;27574;-69
2022/02/07 10:45:09;;;;;;;4.05;2.60;;;4.80;99.90;;;;;;459828;258;28036;-69
2022/02/07 10:47:15;;;;;;;7.62;2.33;;;4.70;99.90;;;;;;459830;258;28705;-69
2022/02/07 10:49:11;;;;;;;7.07;2.40;;;4.80;99.90;;;;;;459841;258;29144;-69
2022/02/07 10:51:12;;;;;;;7.00;2.62;;;4.80;99.90;;;;;;459858;258;27499;-69
2022/02/07 10:53:13;;;;;;;3.60;2.80;;;4.70;99.90;;;;;;459861;258;27451;-70
2022/02/07 10:55:14;;;;;;;7.35;2.60;;;4.70;99.90;;;;;;459859;258;27499;-70
2022/02/07 10:57:16;;;;;;;4.12;2.58;;;4.60;99.90;;;;;;459859;258;27499;-69
2022/02/07 10:59:18;;;;;;;3.85;2.45;;;4.60;99.90;;;;;;459836;258;27510;-69
2022/02/07 11:03:35;;;;;;;10.23;3.25;;;4.30;99.90;;;;;;459844;258;27590;-69
2022/02/07 11:05:39;;;;;;;4.70;2.40;;;4.30;99.90;;;;;;459853;258;27555;-69
2022/02/07 11:07:32;;;;;;;3.95;2.30;;;4.40;99.90;;;;;;459895;258;27459;-70
2022/02/07 11:09:54;;;;;;;11.00;2.85;;;4.40;99.90;;;;;;459852;258;27622;-69
2022/02/07 11:14:08;;;;;;;4.47;2.10;;;4.70;99.90;;;;;;459850;258;27492;-70
2022/02/07 11:16:07;;;;;;;4.72;2.20;;;4.70;99.90;;;;;;459878;258;27914;-70
2022/02/07 11:20:14;;;;;;;5.47;2.05;;;4.70;99.90;;;;;;459855;258;29105;-70
2022/02/07 11:24:21;;;;;;;6.22;2.40;;;4.80;99.90;;;;;;451489;263;27534;-69
2022/02/07 11:26:21;;;;;;;6.22;2.55;;;4.80;99.90;;;;;;451559;261;27690;-70
2022/02/07 11:28:25;;;;;;;7.30;2.62;;;4.70;99.90;;;;;;451523;263;27658;-69
2022/02/07 11:30:23;;;;;;;5.90;2.28;;;4.60;99.90;;;;;;451553;263;27634;-69
2022/02/07 11:32:24;;;;;;;6.50;2.35;;;4.60;99.90;;;;;;451570;263;27599;-70
2022/02/07 11:34:26;;;;;;;5.30;2.58;;;4.60;99.90;;;;;;451564;263;27647;-70
2022/02/07 11:36:27;;;;;;;6.70;2.75;;;4.50;99.90;;;;;;451497;263;28100;-70
2022/02/07 11:38:28;;;;;;;6.95;2.53;;;4.50;99.90;;;;;;451557;263;28886;-70
2022/02/07 11:40:29;;;;;;;9.93;2.53;;;4.50;99.90;;;;;;451588;263;28119;-70
2022/02/07 11:42:31;;;;;;;3.25;2.10;;;4.50;99.90;;;;;;451588;262;27600;-70
2022/02/07 11:44:32;;;;;;;2.85;2.30;;;4.50;99.90;;;;;;451549;263;27761;-69
2022/02/07 11:46:33;;;;;;;3.37;2.50;;;4.50;99.90;;;;;;451538;263;27689;-70
2022/02/07 11:48:35;;;;;;;5.90;2.12;;;4.50;99.90;;;;;;451539;263;27606;-69
2022/02/07 11:50:36;;;;;;;3.95;2.30;;;4.50;99.90;;;;;;451572;263;27569;-69
2022/02/07 11:52:37;;;;;;;6.00;2.20;;;4.50;99.90;;;;;;451561;263;27720;-70
2022/02/07 11:54:38;;;;;;;5.00;2.12;;;4.60;99.90;;;;;;451559;263;27799;-70
2022/02/07 11:56:54;;;;;;;5.75;2.58;;;4.50;99.90;;;;;;451531;263;27597;-70
2022/02/07 11:58:53;;;;;;;5.60;2.35;;;4.50;99.90;;;;;;451606;262;28115;-70
2022/02/07 12:00:57;;;;;;;4.30;2.53;;;4.50;99.90;;;;;;454665;258;28077;-69
2022/02/07 12:02:53;;;;;;;4.53;2.22;;;4.50;99.90;;;;;;459898;258;27998;-70
2022/02/07 12:04:53;;;;;;;5.35;2.25;;;4.50;99.90;;;;;;459874;258;27943;-70
2022/02/07 12:06:55;;;;;;;3.95;2.40;;;4.50;99.90;;;;;;459915;258;27454;-69
2022/02/07 12:08:56;;;;;;;4.72;2.35;;;4.60;99.90;;;;;;459889;258;27499;-69
2022/02/07 12:10:57;;;;;;;4.32;2.08;;;4.60;99.90;;;;;;459912;258;27536;-69
2022/02/07 12:13:03;;;;;;;9.75;2.95;;;4.60;99.90;;;;;;459896;258;27487;-69
2022/02/07 12:15:00;;;;;;;2.97;2.25;;;4.60;99.90;;;;;;459856;258;27567;-69
2022/02/07 12:17:01;;;;;;;3.72;2.40;;;4.60;99.90;;;;;;459882;258;27470;-70
2022/02/07 12:19:02;;;;;;;4.85;2.10;;;4.60;99.90;;;;;;459869;258;27492;-70
2022/02/07 12:21:05;;;;;;;4.55;2.10;;;4.60;99.90;;;;;;459900;258;27507;-70
2022/02/07 12:23:05;;;;;;;11.12;2.30;;;4.70;99.90;;;;;;459857;258;27915;-69
2022/02/07 12:25:10;;;;;;;3.53;1.90;;;4.70;99.90;;;;;;459882;258;27986;-69
2022/02/07 12:27:07;;;;;;;3.65;2.45;;;4.70;99.90;;;;;;459838;258;27957;-70
2022/02/07 12:29:25;;;;;;;6.82;2.40;;;4.70;99.90;;;;;;459886;258;27539;-69
2022/02/07 12:31:22;;;;;;;7.30;2.62;;;4.70;99.90;;;;;;459949;258;27570;-70
2022/02/07 12:33:23;;;;;;;3.22;2.20;;;4.70;99.90;;;;;;459886;258;27586;-69
2022/02/07 12:35:24;;;;;;;3.17;2.15;;;4.70;99.90;;;;;;459879;258;27591;-70
2022/02/07 12:37:25;;;;;;;5.68;2.55;;;4.70;99.90;;;;;;459848;258;27466;-69
2022/02/07 12:39:27;;;;;;;8.27;2.62;;;4.80;99.90;;;;;;459903;258;27931;-70